createdAt,value
2022-11-08T00:00:39.781Z,7.80
2022-11-08T00:04:47.351Z,7.00
2022-11-08T00:09:13.523Z,5.80
2022-11-08T00:13:38.730Z,5.80
2022-11-08T00:17:46.985Z,6.20
2022-11-08T00:21:54.546Z,5.40
2022-11-08T00:26:02.220Z,6.00
2022-11-08T00:30:12.671Z,5.70
2022-11-08T00:34:20.672Z,5.10
2022-11-08T00:38:28.570Z,5.50
2022-11-08T00:42:36.772Z,5.90
2022-11-08T00:46:44.949Z,5.70
2022-11-08T00:50:52.653Z,6.00
2022-11-08T00:55:00.586Z,5.50
2022-11-08T00:59:08.422Z,5.80
2022-11-08T01:03:22.170Z,6.20
2022-11-08T01:07:30.008Z,6.00
2022-11-08T01:11:40.255Z,6.10
2022-11-08T01:15:48.807Z,6.90
2022-11-08T01:19:56.295Z,6.20
2022-11-08T01:24:04.655Z,6.20
2022-11-08T01:28:15.024Z,5.50
2022-11-08T01:32:23.233Z,6.10
2022-11-08T01:36:31.729Z,6.20
2022-11-08T01:40:45.306Z,6.70
2022-11-08T01:45:03.195Z,6.60
2022-11-08T01:49:48.507Z,6.50
2022-11-08T01:53:56.670Z,6.90
2022-11-08T01:58:06.236Z,6.60
2022-11-08T02:02:14.368Z,7.50
2022-11-08T02:06:22.911Z,7.40
2022-11-08T02:10:34.276Z,6.90
2022-11-08T02:14:42.033Z,6.80
2022-11-08T02:18:50.445Z,7.80
2022-11-08T02:23:03.537Z,8.10
2022-11-08T02:27:11.477Z,7.70
2022-11-08T02:31:20.395Z,8.10
2022-11-08T02:35:29.730Z,7.80
2022-11-08T02:39:37.441Z,7.90
2022-11-08T02:43:44.936Z,7.60
2022-11-08T02:47:52.753Z,8.30
2022-11-08T02:52:01.032Z,9.20
2022-11-08T02:56:09.199Z,7.60
2022-11-08T03:00:18.486Z,7.20
2022-11-08T03:04:25.990Z,7.60
2022-11-08T03:08:33.782Z,7.30
2022-11-08T03:12:43.976Z,7.40
2022-11-08T03:16:51.716Z,8.20
2022-11-08T03:21:00.122Z,7.90
2022-11-08T03:25:11.756Z,7.10
2022-11-08T03:29:19.085Z,7.20
2022-11-08T03:33:26.937Z,6.40
2022-11-08T03:37:34.214Z,7.40
2022-11-08T03:41:41.951Z,8.00
2022-11-08T03:45:51.078Z,7.40
2022-11-08T03:49:59.094Z,7.20
2022-11-08T03:54:07.308Z,7.70
2022-11-08T03:58:16.577Z,8.60
2022-11-08T04:02:25.251Z,8.90
2022-11-08T04:06:33.326Z,8.00
2022-11-08T04:10:41.254Z,6.70
2022-11-08T04:15:08.403Z,7.00
2022-11-08T04:19:36.335Z,7.00
2022-11-08T04:23:43.887Z,7.20
2022-11-08T04:27:51.232Z,6.60
2022-11-08T04:31:58.985Z,6.10
2022-11-08T04:36:08.968Z,5.80
2022-11-08T04:40:16.700Z,5.20
2022-11-08T04:44:24.556Z,5.50
2022-11-08T04:48:33.734Z,6.20
2022-11-08T04:52:41.999Z,6.90
2022-11-08T04:56:50.541Z,5.50
2022-11-08T05:00:58.143Z,6.20
2022-11-08T05:05:06.157Z,5.80
2022-11-08T05:09:13.803Z,6.20
2022-11-08T05:13:21.748Z,6.10
2022-11-08T05:17:29.525Z,6.30
2022-11-08T05:21:55.199Z,5.70
2022-11-08T05:26:02.769Z,6.00
2022-11-08T05:30:13.575Z,5.50
2022-11-08T05:34:22.097Z,6.50
2022-11-08T05:38:31.550Z,6.90
2022-11-08T05:42:40.150Z,7.00
2022-11-08T05:46:47.729Z,6.10
2022-11-08T05:50:55.296Z,7.00
2022-11-08T05:55:03.402Z,6.50
2022-11-08T05:59:11.744Z,7.00
2022-11-08T06:03:23.690Z,5.30
2022-11-08T06:07:32.325Z,5.50
2022-11-08T06:11:40.244Z,4.00
2022-11-08T06:15:48.188Z,4.80
2022-11-08T06:19:55.590Z,5.00
2022-11-08T06:24:03.163Z,4.90
2022-11-08T06:28:13.442Z,5.80
2022-11-08T06:32:21.461Z,6.20
2022-11-08T06:36:29.450Z,6.50
2022-11-08T06:40:38.158Z,6.50
2022-11-08T06:44:45.832Z,6.30
2022-11-08T06:48:53.327Z,8.10
2022-11-08T06:53:02.606Z,6.70
2022-11-08T06:57:13.068Z,5.90
2022-11-08T07:01:21.134Z,5.30
2022-11-08T07:05:29.962Z,5.80
2022-11-08T07:09:37.750Z,5.70
2022-11-08T07:13:45.744Z,4.30
2022-11-08T07:17:53.495Z,5.70
2022-11-08T07:22:01.352Z,5.50
2022-11-08T07:26:10.676Z,4.90
2022-11-08T07:30:19.818Z,4.40
2022-11-08T07:34:28.335Z,3.80
2022-11-08T07:38:35.842Z,4.20
2022-11-08T07:43:10.059Z,4.70
2022-11-08T07:47:11.574Z,3.80
2022-11-08T07:51:19.166Z,3.50
2022-11-08T07:55:27.196Z,3.50
2022-11-08T07:59:34.935Z,3.90
2022-11-08T08:03:42.637Z,3.40
2022-11-08T08:07:50.223Z,4.00
2022-11-08T08:11:58.104Z,4.00
2022-11-08T08:16:06.508Z,4.00
2022-11-08T08:20:15.601Z,4.10
2022-11-08T08:24:23.268Z,3.40
2022-11-08T08:28:31.051Z,3.40
2022-11-08T08:32:39.880Z,4.00
2022-11-08T08:36:47.535Z,4.40
2022-11-08T08:40:55.451Z,5.50
2022-11-08T08:45:03.538Z,4.50
2022-11-08T08:49:11.570Z,3.20
2022-11-08T08:53:19.742Z,3.20
2022-11-08T08:57:27.650Z,2.90
2022-11-08T09:05:48.248Z,3.10
2022-11-08T09:09:56.098Z,3.20
2022-11-08T09:14:04.800Z,2.70
2022-11-08T09:18:12.892Z,2.60
2022-11-08T09:22:21.092Z,2.80
2022-11-08T09:26:30.112Z,2.60
2022-11-08T09:30:38.394Z,2.50
2022-11-08T09:34:46.416Z,2.70
2022-11-08T09:38:54.808Z,2.80
2022-11-08T09:43:10.668Z,2.90
2022-11-08T09:47:24.167Z,2.60
2022-11-08T09:51:35.194Z,2.60
2022-11-08T09:55:45.984Z,2.60
2022-11-08T09:59:59.652Z,2.40
2022-11-08T10:04:10.576Z,2.20
2022-11-08T10:08:27.077Z,2.40
2022-11-08T10:12:43.641Z,2.20
2022-11-08T10:16:57.575Z,2.40
2022-11-08T10:21:09.896Z,2.10
2022-11-08T10:25:25.432Z,2.00
2022-11-08T10:29:36.967Z,2.50
2022-11-08T10:33:49.746Z,2.20
2022-11-08T10:37:59.237Z,1.90
2022-11-08T10:42:10.121Z,1.70
2022-11-08T10:46:32.268Z,1.80
2022-11-08T10:50:45.802Z,1.80
2022-11-08T10:54:54.504Z,1.60
2022-11-08T10:59:02.561Z,1.60
2022-11-08T11:03:29.067Z,1.70
2022-11-08T11:07:38.947Z,2.00
2022-11-08T11:11:46.968Z,1.40
2022-11-08T11:15:59.985Z,1.80
2022-11-08T11:20:19.700Z,1.40
2022-11-08T11:24:27.488Z,1.40
2022-11-08T11:28:37.440Z,1.40
2022-11-08T11:32:48.107Z,1.60
2022-11-08T11:36:58.827Z,1.50
2022-11-08T11:41:11.339Z,1.60
2022-11-08T11:45:23.361Z,1.30
2022-11-08T11:49:32.512Z,1.20
2022-11-08T11:53:47.393Z,1.30
2022-11-08T11:58:05.587Z,1.30
2022-11-08T12:02:50.521Z,1.00
2022-11-08T12:07:05.296Z,1.30
2022-11-08T12:11:36.923Z,1.40
2022-11-08T12:15:49.391Z,1.20
2022-11-08T12:20:06.086Z,1.30
2022-11-08T12:24:26.075Z,1.50
2022-11-08T12:28:56.625Z,1.30
2022-11-08T12:33:28.411Z,1.60
2022-11-08T12:37:48.160Z,1.80
2022-11-08T12:42:02.841Z,1.90
2022-11-08T12:46:13.655Z,1.80
2022-11-08T12:50:27.396Z,1.70
2022-11-08T12:54:38.246Z,1.50
2022-11-08T12:58:48.080Z,1.70
2022-11-08T13:03:05.848Z,2.20
2022-11-08T13:07:21.259Z,1.70
2022-11-08T13:11:34.173Z,1.50
2022-11-08T13:16:12.538Z,1.80
2022-11-08T13:20:40.110Z,1.80
2022-11-08T13:24:47.791Z,1.90
2022-11-08T13:28:56.155Z,2.20
2022-11-08T13:33:10.482Z,1.70
2022-11-08T13:37:40.937Z,2.10
2022-11-08T13:42:06.273Z,2.00
2022-11-08T13:46:48.007Z,4.20
2022-11-08T13:50:56.995Z,4.50
2022-11-08T13:55:04.798Z,2.70
2022-11-08T13:59:57.324Z,2.10
2022-11-08T14:04:04.976Z,2.60
2022-11-08T14:08:26.385Z,3.20
2022-11-08T14:12:37.651Z,3.70
2022-11-08T14:16:52.374Z,4.40
2022-11-08T14:21:08.026Z,2.50
2022-11-08T14:25:32.899Z,2.20
2022-11-08T14:29:40.607Z,2.20
2022-11-08T14:33:48.798Z,2.50
2022-11-08T14:37:57.726Z,2.50
2022-11-08T14:42:06.834Z,2.00
2022-11-08T14:46:16.823Z,2.30
2022-11-08T14:50:25.785Z,2.20
2022-11-08T14:54:41.964Z,2.40
2022-11-08T14:58:51.528Z,4.20
2022-11-08T15:03:01.090Z,4.50
2022-11-08T15:07:12.240Z,4.40
2022-11-08T15:11:33.466Z,4.50
2022-11-08T15:15:41.088Z,4.10
2022-11-08T15:19:49.727Z,4.50
2022-11-08T15:24:11.621Z,4.40
2022-11-08T15:28:23.943Z,5.70
2022-11-08T15:32:36.947Z,13.70
2022-11-08T15:36:44.797Z,19.80
2022-11-08T15:40:54.380Z,11.80
2022-11-08T15:45:05.074Z,9.10
2022-11-08T15:49:24.253Z,8.60
2022-11-08T15:53:36.092Z,9.20
2022-11-08T15:57:45.966Z,10.10
2022-11-08T16:01:56.492Z,8.60
2022-11-08T16:06:04.378Z,8.40
2022-11-08T16:10:13.585Z,8.10
2022-11-08T16:14:24.157Z,6.50
2022-11-08T16:18:34.421Z,5.50
2022-11-08T16:22:42.532Z,5.20
2022-11-08T16:26:50.473Z,4.80
2022-11-08T16:30:57.974Z,5.80
2022-11-08T16:35:05.694Z,6.20
2022-11-08T16:39:18.295Z,7.80
2022-11-08T16:43:26.112Z,8.60
2022-11-08T16:47:35.410Z,10.30
2022-11-08T16:51:42.875Z,12.40
2022-11-08T16:55:50.760Z,13.80
2022-11-08T16:59:58.428Z,13.20
2022-11-08T17:04:06.034Z,10.50
2022-11-08T17:08:13.419Z,11.30
2022-11-08T17:12:21.042Z,10.30
2022-11-08T17:16:28.935Z,10.20
2022-11-08T17:20:36.942Z,11.60
2022-11-08T17:24:44.978Z,9.20
2022-11-08T17:28:52.798Z,9.30
2022-11-08T17:33:00.735Z,13.10
2022-11-08T17:37:08.779Z,15.20
2022-11-08T17:41:17.730Z,11.10
2022-11-08T17:45:25.751Z,8.30
2022-11-08T17:49:33.369Z,8.20
2022-11-08T17:53:42.442Z,9.30
2022-11-08T17:57:50.036Z,9.40
2022-11-08T18:01:57.837Z,9.60
2022-11-08T18:06:07.780Z,11.60
2022-11-08T18:10:16.683Z,12.70
2022-11-08T18:14:28.596Z,11.60
2022-11-08T18:18:36.568Z,13.30
2022-11-08T18:22:44.041Z,16.20
2022-11-08T18:26:51.724Z,16.80
2022-11-08T18:31:08.119Z,13.60
2022-11-08T18:35:16.107Z,12.60
2022-11-08T18:39:25.150Z,14.70
2022-11-08T18:43:32.778Z,14.70
2022-11-08T18:47:42.678Z,16.90
2022-11-08T18:51:52.731Z,20.80
2022-11-08T18:56:01.140Z,15.60
2022-11-08T19:00:10.698Z,15.90
2022-11-08T19:04:18.701Z,14.00
2022-11-08T19:08:30.679Z,13.70
2022-11-08T19:12:38.685Z,13.20
2022-11-08T19:16:46.077Z,17.10
2022-11-08T19:20:58.884Z,17.30
2022-11-08T19:25:08.479Z,17.60
2022-11-08T19:29:17.430Z,17.60
2022-11-08T19:33:27.361Z,16.50
2022-11-08T19:37:35.257Z,16.80
2022-11-08T19:41:43.127Z,20.20
2022-11-08T19:45:55.890Z,17.70
2022-11-08T19:50:05.731Z,18.20
2022-11-08T19:54:15.804Z,16.80
2022-11-08T19:58:23.897Z,18.50
2022-11-08T20:02:31.672Z,12.40
2022-11-08T20:06:39.986Z,21.10
2022-11-08T20:10:51.670Z,22.20
2022-11-08T20:14:59.772Z,17.40
2022-11-08T20:19:10.594Z,14.30
2022-11-08T20:23:19.844Z,14.70
2022-11-08T20:27:28.500Z,14.00
2022-11-08T20:31:36.622Z,12.10
2022-11-08T20:35:46.238Z,10.50
2022-11-08T20:39:53.452Z,10.80
2022-11-08T20:44:02.190Z,10.90
2022-11-08T20:48:09.921Z,11.10
2022-11-08T20:52:22.428Z,10.30
2022-11-08T20:56:30.261Z,10.90
2022-11-08T21:00:57.200Z,12.40
2022-11-08T21:05:05.982Z,10.50
2022-11-08T21:09:36.799Z,12.20
2022-11-08T21:13:45.282Z,13.00
2022-11-08T21:17:53.720Z,13.90
2022-11-08T21:22:15.323Z,11.40
2022-11-08T21:26:24.033Z,10.40
2022-11-08T21:30:32.047Z,11.50
2022-11-08T21:34:46.521Z,11.70
2022-11-08T21:38:54.667Z,12.20
2022-11-08T21:43:02.615Z,11.50
2022-11-08T21:47:10.860Z,11.90
2022-11-08T21:51:19.085Z,12.40
2022-11-08T21:55:27.103Z,12.40
2022-11-08T21:59:35.975Z,13.20
2022-11-08T22:03:43.703Z,17.20
2022-11-08T22:07:51.728Z,14.60
2022-11-08T22:11:59.388Z,13.30
2022-11-08T22:16:10.006Z,20.40
2022-11-08T22:20:17.619Z,14.80
2022-11-08T22:24:25.304Z,18.10
2022-11-08T22:28:32.883Z,11.80
2022-11-08T22:32:40.760Z,10.50
2022-11-08T22:36:49.270Z,11.10
2022-11-08T22:40:57.674Z,9.70
2022-11-08T22:45:05.873Z,10.60
2022-11-08T22:49:14.229Z,10.80
2022-11-08T22:53:21.757Z,11.30
2022-11-08T22:57:31.653Z,10.60
2022-11-08T23:01:39.341Z,10.20
2022-11-08T23:05:51.315Z,10.30
2022-11-08T23:09:59.635Z,8.60
2022-11-08T23:14:25.693Z,8.90
2022-11-08T23:18:35.527Z,8.80
2022-11-08T23:23:00.714Z,9.40
2022-11-08T23:27:26.309Z,8.70
2022-11-08T23:31:38.143Z,9.60
2022-11-08T23:35:59.307Z,9.20
2022-11-08T23:40:26.359Z,9.30
2022-11-08T23:44:34.798Z,9.50
2022-11-08T23:48:43.846Z,8.60
2022-11-08T23:52:51.757Z,9.50
2022-11-08T23:56:59.258Z,9.80
